Time;durP1;ratioP1;P1;durP2;ratioP2;P2;SDS_P1;SDS_P2;PMS_P1;PMS_P2;Temp;Humidity;BMP_temperature;BMP_pressure;BME280_temperature;BME280_humidity;BME280_pressure;Samples;Min_cycle;Max_cycle;Signal;HPM_P1;HPM_P2
2022/08/06 00:00:03;;;;;;;;;;;;;;;;;;;;;
2022/08/06 00:02:44;;;;;;;;;;;;;;;;;;;;;
2022/08/06 00:10:57;;;;;;;;;;;;;;;;;;;;;
2022/08/06 00:21:24;;;;;;;;;;;;;;;;;;;;;
2022/08/06 00:24:14;;;;;;;;;;;;;;;;;;;;;
2022/08/06 00:26:41;;;;;;;;;;;;;;;;;;;;;
2022/08/06 00:29:48;;;;;;;5.78;1.20;;;;;;;17.17;100.00;101658.02;1396755;99;21327;-77
2022/08/06 00:34:43;;;;;;;;;;;;;;;;;;;;;
2022/08/06 00:37:13;;;;;;;2.58;1.30;;;;;;;17.05;100.00;101645.98;1435488;98;21237;-74
2022/08/06 00:42:34;;;;;;;;;;;;;;;;;;;;;
2022/08/06 00:48:32;;;;;;;;;;;;;;;;;;;;;
2022/08/06 00:50:25;;;;;;;5.08;1.75;;;;;;;16.83;100.00;101619.33;1419864;95;21644;-75
2022/08/06 00:53:18;;;;;;;;;;;;;;;;;;;;;
2022/08/06 00:56:02;;;;;;;1.80;0.93;;;;;;;16.56;100.00;101595.31;1454200;94;21289;-74
2022/08/06 01:01:07;;;;;;;;;;;;;;;;;;;;;
2022/08/06 01:06:22;;;;;;;7.62;1.02;;;;;;;16.51;100.00;101578.51;1461174;96;21168;-74
2022/08/06 01:08:50;;;;;;;;;;;;;;;;;;;;;
2022/08/06 01:12:10;;;;;;;;;;;;;;;;;;;;;
2022/08/06 01:13:55;;;;;;;;;;;;;;;;;;;;;
2022/08/06 01:16:20;;;;;;;5.00;1.30;;;;;;;16.59;100.00;101574.54;1460908;96;21169;-75
2022/08/06 01:19:04;;;;;;;2.25;1.20;;;;;;;16.44;100.00;101575.11;1586398;89;21126;-74
2022/08/06 01:24:32;;;;;;;;;;;;;;;;;;;;;
2022/08/06 01:27:38;;;;;;;;;;;;;;;;;;;;;
2022/08/06 01:33:48;;;;;;;;;;;;;;;;;;;;;
2022/08/06 01:36:02;;;;;;;;;;;;;;;;;;;;;
2022/08/06 01:38:47;;;;;;;3.67;1.22;;;;;;;16.69;100.00;101541.17;1572832;89;21139;-75
2022/08/06 01:47:18;;;;;;;3.87;1.20;;;;;;;16.71;100.00;101530.33;1495715;94;21248;-75
2022/08/06 01:49:36;;;;;;;4.75;1.42;;;;;;;16.47;100.00;101517.16;1514236;92;21251;-74
2022/08/06 01:52:12;;;;;;;;;;;;;;;;;;;;;
2022/08/06 01:54:37;;;;;;;4.33;1.30;;;;;;;16.65;100.00;101505.75;1566013;89;21263;-74
2022/08/06 01:57:16;;;;;;;;;;;;;;;;;;;;;
2022/08/06 01:59:41;;;;;;;4.28;1.90;;;;;;;16.46;100.00;101507.20;1649821;85;21137;-74
2022/08/06 02:02:18;;;;;;;4.80;1.12;;;;;;;16.40;100.00;101496.03;1644207;85;21965;-74
2022/08/06 02:14:35;;;;;;;;;;;;;;;;;;;;;
2022/08/06 03:35:53;;;;;;;;;;;;;;;;;;;;;
2022/08/06 03:38:33;;;;;;;4.60;1.17;;;;;;;16.17;100.00;101394.67;1485227;94;21585;-75
2022/08/06 03:41:00;;;;;;;;;;;;;;;;;;;;;
2022/08/06 03:52:06;;;;;;;3.40;0.88;;;;;;;16.16;100.00;101392.53;1600850;88;21191;-75
2022/08/06 03:54:39;;;;;;;2.58;0.78;;;;;;;16.19;100.00;101404.14;1598624;89;21110;-75
2022/08/06 03:57:28;;;;;;;;;;;;;;;;;;;;;
2022/08/06 03:59:58;;;;;;;2.50;0.95;;;;;;;15.99;100.00;101391.38;1616863;84;21117;-75
2022/08/06 04:02:33;;;;;;;;;;;;;;;;;;;;;
2022/08/06 04:05:13;;;;;;;;;;;;;;;;;;;;;
2022/08/06 04:07:49;;;;;;;3.98;1.00;;;;;;;15.96;100.00;101401.34;1676133;83;21153;-75
2022/08/06 04:15:28;;;;;;;;;;;;;;;;;;;;;
2022/08/06 04:20:32;;;;;;;;;;;;;;;;;;;;;
2022/08/06 04:22:58;;;;;;;7.45;1.55;;;;;;;15.99;100.00;101411.66;1701294;81;21128;-75
2022/08/06 04:25:36;;;;;;;;;;;;;;;;;;;;;
2022/08/06 04:28:04;;;;;;;3.00;1.05;;;;;;;15.98;100.00;101411.70;1719287;80;21541;-75
2022/08/06 04:30:43;;;;;;;;;;;;;;;;;;;;;
2022/08/06 04:33:06;;;;;;;1.80;0.90;;;;;;;16.11;100.00;101420.20;1750073;81;21190;-75
2022/08/06 04:38:26;;;;;;;;;;;;;;;;;;;;;
2022/08/06 04:41:00;;;;;;;5.83;1.10;;;;;;;16.11;100.00;101422.38;1658926;85;21213;-75
2022/08/06 04:43:29;;;;;;;3.83;0.90;;;;;;;16.20;100.00;101427.92;1730467;79;21205;-76
2022/08/06 04:46:18;;;;;;;;;;;;;;;;;;;;;
2022/08/06 04:55:39;;;;;;;;;;;;;;;;;;;;;
2022/08/06 04:58:08;;;;;;;;;;;;;;;;;;;;;
2022/08/06 07:05:09;;;;;;;10.50;2.08;;;;;;;20.09;100.00;101654.96;1707632;82;21187;-77
2022/08/06 07:07:49;;;;;;;4.05;1.82;;;;;;;20.15;100.00;101667.02;1727036;81;21173;-76
2022/08/06 07:13:42;;;;;;;6.72;2.00;;;;;;;20.87;100.00;101687.13;1674530;81;21215;-75
2022/08/06 07:15:57;;;;;;;3.10;1.10;;;;;;;20.82;100.00;101698.98;1628585;84;21195;-75
2022/08/06 07:18:26;;;;;;;5.30;1.22;;;;;;;20.89;100.00;101704.95;1700344;82;21153;-75
2022/08/06 07:20:54;;;;;;;10.72;2.58;;;;;;;20.92;100.00;101710.53;1718838;81;21096;-75
2022/08/06 07:23:22;;;;;;;10.45;2.80;;;;;;;20.86;100.00;101713.69;1695896;83;21552;-75
2022/08/06 07:25:50;;;;;;;8.00;1.45;;;;;;;21.10;100.00;101717.92;1726421;81;21103;-76
2022/08/06 07:28:18;;;;;;;6.40;1.85;;;;;;;20.97;100.00;101734.81;1730411;82;21158;-75
2022/08/06 07:30:47;;;;;;;6.75;1.32;;;;;;;21.03;100.00;101719.41;1680589;83;21093;-76
2022/08/06 07:33:14;;;;;;;5.75;1.22;;;;;;;21.14;100.00;101732.63;1722370;81;21092;-76
2022/08/06 07:35:43;;;;;;;6.30;1.32;;;;;;;21.55;100.00;101738.56;1747657;81;21632;-76
2022/08/06 07:38:12;;;;;;;3.00;1.00;;;;;;;21.72;100.00;101736.80;1730923;81;21167;-75
2022/08/06 07:40:52;;;;;;;4.70;1.10;;;;;;;21.84;100.00;101743.03;1723073;82;21074;-76
2022/08/06 07:43:18;;;;;;;7.30;2.10;;;;;;;21.78;100.00;101749.29;1704796;82;21193;-76
2022/08/06 07:45:46;;;;;;;5.05;1.50;;;;;;;21.64;100.00;101754.87;1727100;81;21048;-76
2022/08/06 07:48:15;;;;;;;9.08;1.60;;;;;;;21.49;100.00;101754.83;1715103;82;21174;-75
2022/08/06 07:50:48;;;;;;;4.62;1.75;;;;;;;21.59;100.00;101768.52;1706436;82;21071;-76
2022/08/06 07:53:16;;;;;;;4.97;1.45;;;;;;;21.69;100.00;101773.05;1717826;81;21157;-76
2022/08/06 07:55:43;;;;;;;2.47;1.30;;;;;;;21.90;100.00;101774.27;1709861;81;21119;-76
2022/08/06 07:58:14;;;;;;;4.75;1.30;;;;;;;21.96;100.00;101781.53;1734011;81;21473;-76
2022/08/06 08:00:43;;;;;;;3.12;1.25;;;;;;;21.92;100.00;101786.00;1708444;83;21132;-76
2022/08/06 08:08:42;;;;;;;3.90;1.50;;;;;;;22.30;100.00;101798.43;1731665;81;21121;-76
2022/08/06 08:11:12;;;;;;;5.87;2.62;;;;;;;22.39;100.00;101811.72;1698954;82;21098;-76
2022/08/06 08:13:39;;;;;;;9.55;1.67;;;;;;;22.39;100.00;101811.72;1719964;81;21108;-76
2022/08/06 08:16:11;;;;;;;4.10;1.62;;;;;;;22.84;100.00;101812.63;1722513;81;21640;-76
2022/08/06 08:18:40;;;;;;;4.67;1.27;;;;;;;22.63;100.00;101857.75;1725582;81;21160;-76
2022/08/06 08:21:09;;;;;;;5.83;1.07;;;;;;;22.63;100.00;101857.75;1725931;81;21095;-76
2022/08/06 08:23:46;;;;;;;4.83;1.32;;;;;;;22.79;100.00;101876.95;1733247;81;21167;-76
2022/08/06 08:26:06;;;;;;;2.83;0.90;;;;;;;22.86;100.00;101900.75;1737537;80;21080;-76
2022/08/06 08:28:33;;;;;;;2.72;1.00;;;;;;;22.63;100.00;101903.59;1736754;81;21080;-75
2022/08/06 08:31:05;;;;;;;5.00;1.32;;;;;;;22.76;100.00;101915.88;1695915;82;21196;-76
2022/08/06 08:33:32;;;;;;;4.78;1.32;;;;;;;22.76;100.00;101915.88;1704944;83;21090;-75
2022/08/06 08:36:10;;;;;;;6.28;1.00;;;;;;;22.83;100.00;101933.59;1721197;82;21095;-76
2022/08/06 08:38:29;;;;;;;6.72;1.22;;;;;;;22.87;100.00;101931.72;1716272;82;21087;-75
2022/08/06 08:40:59;;;;;;;3.50;0.95;;;;;;;22.99;100.00;101927.90;1726994;81;21060;-75
2022/08/06 08:43:33;;;;;;;5.03;1.10;;;;;;;23.25;100.00;101933.65;1721616;81;21083;-75
2022/08/06 08:46:08;;;;;;;;;;;;;;;;;;;;;
2022/08/06 08:48:29;;;;;;;4.58;1.10;;;;;;;23.33;100.00;101931.65;1725050;81;21104;-76
2022/08/06 08:51:04;;;;;;;3.98;1.25;;;;;;;23.44;100.00;101933.12;1725989;82;21641;-75
2022/08/06 08:53:50;;;;;;;;;;;;;;;;;;;;;
2022/08/06 08:56:06;;;;;;;2.08;0.72;;;;;;;23.03;100.00;101931.70;1732220;81;21074;-76
2022/08/06 08:58:36;;;;;;;8.65;1.40;;;;;;;23.77;100.00;101938.61;1724321;82;21154;-76
2022/08/06 09:01:12;;;;;;;5.05;1.20;;;;;;;23.77;100.00;101938.61;1732411;81;21098;-77
2022/08/06 09:03:37;;;;;;;;;;;;;;;23.89;100.00;101955.72;1725159;81;21218;-75
2022/08/06 09:06:06;;;;;;;6.60;0.98;;;;;;;23.62;100.00;101987.19;1714779;81;20118;-76
2022/08/06 09:08:38;;;;;;;1.87;0.82;;;;;;;23.80;100.00;102004.11;1716797;82;21133;-76
2022/08/06 09:11:06;;;;;;;4.40;1.10;;;;;;;23.69;100.00;102007.95;1728862;81;21949;-76
2022/08/06 09:13:34;;;;;;;2.22;0.65;;;;;;;23.79;100.00;102003.27;1698611;83;21087;-75
2022/08/06 09:16:01;;;;;;;4.37;0.98;;;;;;;23.53;100.00;102010.19;1706504;83;21048;-76
2022/08/06 09:18:29;;;;;;;5.33;1.55;;;;;;;23.64;100.00;102021.64;1699847;84;21053;-76
2022/08/06 09:20:57;;;;;;;10.13;2.27;;;;;;;24.20;100.00;102029.55;1702299;83;21597;-75
2022/08/06 09:23:27;;;;;;;7.10;0.80;;;;;;;24.20;100.00;102029.55;1710170;82;21550;-75
2022/08/06 09:25:54;;;;;;;2.40;0.82;;;;;;;24.20;100.00;102041.36;1719562;82;21040;-75
2022/08/06 09:28:31;;;;;;;3.35;1.00;;;;;;;24.33;100.00;102043.97;1721915;81;21117;-76
2022/08/06 09:31:09;;;;;;;4.65;0.88;;;;;;;24.61;100.00;102042.14;1702349;84;21089;-75
2022/08/06 09:33:42;;;;;;;1.80;0.62;;;;;;;24.77;100.00;102043.78;1712811;82;21166;-75
2022/08/06 09:36:11;;;;;;;3.22;0.80;;;;;;;24.85;96.39;102055.34;1708923;82;21107;-75
2022/08/06 09:38:56;;;;;;;3.02;1.98;;;;;;;25.09;96.12;102058.00;1715758;81;21092;-75
2022/08/06 09:41:26;;;;;;;3.25;0.80;;;;;;;24.45;97.52;102041.39;1721019;81;21123;-75
2022/08/06 09:43:55;;;;;;;2.67;0.95;;;;;;;24.89;95.86;102056.95;1709139;81;21057;-75
2022/08/06 09:46:45;;;;;;;4.40;0.85;;;;;;;25.14;98.85;102047.31;1716160;81;21093;-76
2022/08/06 09:49:05;;;;;;;1.85;0.70;;;;;;;25.14;94.87;102062.65;1723680;81;21148;-75
2022/08/06 09:51:34;;;;;;;0.88;0.75;;;;;;;25.23;94.63;102053.09;1710762;82;21533;-75
2022/08/06 09:54:15;;;;;;;;;;;;;;;;;;;;;
2022/08/06 09:57:21;;;;;;;2.37;0.82;;;;;;;25.42;94.22;102058.11;1717752;81;21117;-76
2022/08/06 09:59:12;;;;;;;2.52;0.95;;;;;;;25.51;93.41;102057.30;1710594;83;21061;-75
2022/08/06 10:01:42;;;;;;;2.80;0.70;;;;;;;24.96;89.75;102073.39;1705679;82;21143;-75
2022/08/06 10:04:18;;;;;;;3.67;0.70;;;;;;;25.24;91.95;102068.42;1706812;82;21041;-76
2022/08/06 10:06:59;;;;;;;7.45;1.00;;;;;;;25.40;89.99;102075.73;1705475;83;21167;-77
2022/08/06 10:09:31;;;;;;;2.37;0.80;;;;;;;25.54;88.98;102072.58;1719295;82;21059;-76
2022/08/06 10:12:03;;;;;;;2.75;0.80;;;;;;;25.75;89.99;102064.30;1745687;80;21131;-77
2022/08/06 10:14:32;;;;;;;3.02;1.02;;;;;;;25.90;90.03;102065.48;1696417;84;21182;-77
2022/08/06 10:17:14;;;;;;;5.05;1.15;;;;;;;25.38;89.87;102070.53;1708197;81;21101;-75
2022/08/06 10:28:06;;;;;;;9.20;2.08;;;;;;;26.10;91.57;102052.80;1661431;86;21107;-76
2022/08/06 10:33:23;;;;;;;;;;;;;;;;;;;;;
2022/08/06 10:41:08;;;;;;;4.55;0.95;;;;;;;25.95;91.88;102043.77;1553116;89;20394;-76
2022/08/06 10:43:41;;;;;;;2.10;0.72;;;;;;;26.02;86.53;102049.19;1585395;87;21157;-76
2022/08/06 10:46:19;;;;;;;;;;;;;;;;;;;;;
2022/08/06 10:56:55;;;;;;;2.72;0.93;;;;;;;26.08;84.42;102038.86;1672094;83;21191;-76
2022/08/06 10:59:49;;;;;;;;;;;;;;;26.06;83.63;102039.84;1674548;84;21120;-75
2022/08/06 11:22:33;;;;;;;2.27;0.70;;;;;;;26.22;56.78;102058.03;1861555;76;21101;-75
2022/08/06 11:25:11;;;;;;;1.62;0.68;;;;;;;26.20;56.45;102055.91;1846469;77;21155;-75
2022/08/06 11:28:01;;;;;;;;;;;;;;;;;;;;;
2022/08/06 11:30:32;;;;;;;;;;;;;;;;;;;;;
2022/08/06 11:33:06;;;;;;;4.75;0.85;;;;;;;26.58;51.84;102051.75;1838092;76;21198;-75
2022/08/06 11:36:10;;;;;;;;;;;;;;;;;;;;;
2022/08/06 11:38:14;;;;;;;2.58;0.78;;;;;;;26.50;52.39;102048.98;1791031;76;21108;-75
2022/08/06 11:44:00;;;;;;;;;;;;;;;;;;;;;
2022/08/06 11:46:33;;;;;;;0.85;0.53;;;;;;;26.47;45.63;101991.14;1732274;81;21162;-75
2022/08/06 11:49:08;;;;;;;2.50;0.65;;;;;;;26.52;45.08;101993.10;1786093;78;21022;-75
2022/08/06 11:51:48;;;;;;;1.05;0.40;;;;;;;26.56;44.72;101987.25;1839048;77;21095;-75
2022/08/06 11:54:34;;;;;;;1.92;0.70;;;;;;;26.46;42.34;102001.30;1835338;76;21056;-75
2022/08/06 11:57:12;;;;;;;3.25;0.68;;;;;;;26.29;42.60;101988.85;1839462;77;21030;-75
2022/08/06 11:59:47;;;;;;;4.22;0.70;;;;;;;26.30;44.30;101982.66;1843231;76;21047;-75
2022/08/06 12:02:17;;;;;;;2.47;0.50;;;;;;;26.48;45.98;101974.88;1832412;77;21523;-75
2022/08/06 12:04:49;;;;;;;1.20;0.30;;;;;;;26.60;43.66;101974.33;1826057;77;21025;-75
2022/08/06 12:07:36;;;;;;;;;;;;;;;;;;;;;
2022/08/06 12:10:15;;;;;;;3.75;0.60;;;;;;;26.68;43.09;101957.32;1822754;78;21029;-75
2022/08/06 12:12:54;;;;;;;2.25;0.65;;;;;;;26.63;45.16;101960.16;1822045;77;21182;-75
2022/08/06 12:15:36;;;;;;;;;;;;;;;;;;;;;
2022/08/06 12:18:06;;;;;;;0.82;0.50;;;;;;;26.84;46.55;101950.86;1766847;78;21157;-75
2022/08/06 12:20:44;;;;;;;1.25;0.60;;;;;;;26.86;44.00;101949.03;1820689;77;21845;-76
2022/08/06 12:25:47;;;;;;;2.65;0.70;;;;;;;26.57;42.78;101955.14;1802768;77;21064;-75
2022/08/06 12:28:17;;;;;;;2.83;0.65;;;;;;;26.47;42.35;101948.98;1827347;77;21105;-76
2022/08/06 12:30:47;;;;;;;2.55;0.53;;;;;;;26.43;46.13;101949.18;1843214;77;21013;-75
2022/08/06 12:33:16;;;;;;;1.20;0.72;;;;;;;26.34;43.99;101960.52;1839102;77;21171;-75
2022/08/06 12:35:57;;;;;;;4.97;0.95;;;;;;;26.49;41.68;101956.83;1827106;77;21127;-75
2022/08/06 12:38:26;;;;;;;2.10;0.60;;;;;;;26.28;42.88;101913.39;1828531;77;21034;-75
2022/08/06 12:40:55;;;;;;;1.87;0.78;;;;;;;26.63;42.82;101941.70;1834554;77;21048;-76
2022/08/06 12:43:22;;;;;;;0.90;0.60;;;;;;;26.64;43.31;101935.50;1830673;77;21151;-75
2022/08/06 12:45:57;;;;;;;4.67;0.80;;;;;;;26.81;44.32;101934.73;1838451;77;21127;-75
2022/08/06 12:48:24;;;;;;;4.75;0.78;;;;;;;26.83;43.39;101938.62;1837744;76;21081;-75
2022/08/06 12:51:06;;;;;;;1.95;0.80;;;;;;;26.89;40.82;101939.63;1838508;77;21068;-75
2022/08/06 12:53:37;;;;;;;0.95;0.50;;;;;;;26.85;42.36;101934.11;1848704;77;21081;-75
2022/08/06 12:56:08;;;;;;;3.85;0.70;;;;;;;27.01;42.72;101921.94;1842079;77;21522;-75
2022/08/06 12:58:37;;;;;;;2.50;0.78;;;;;;;26.96;43.56;101929.70;1844095;77;21159;-75
2022/08/06 13:01:06;;;;;;;0.98;0.42;;;;;;;27.17;42.35;101917.25;1834761;77;21599;-75
2022/08/06 13:03:36;;;;;;;0.75;0.50;;;;;;;27.24;43.79;101917.84;1825339;77;21093;-75
2022/08/06 13:06:06;;;;;;;2.52;0.53;;;;;;;27.39;44.10;101920.17;1842537;77;21068;-75
2022/08/06 13:08:34;;;;;;;2.27;0.50;;;;;;;27.50;44.29;101913.05;1847481;77;21065;-75
2022/08/06 13:11:02;;;;;;;2.08;0.53;;;;;;;27.40;42.67;101906.91;1832899;77;21030;-75
2022/08/06 13:13:52;;;;;;;3.22;0.80;;;;;;;27.41;43.40;101905.11;1845494;77;21160;-75
2022/08/06 13:16:14;;;;;;;3.58;0.57;;;;;;;27.27;41.94;101924.26;1817614;77;21475;-75
2022/08/06 13:18:43;;;;;;;1.17;0.88;;;;;;;27.15;40.62;101909.41;1843864;77;21569;-76
2022/08/06 13:21:21;;;;;;;4.03;0.75;;;;;;;26.86;39.85;101910.31;1836968;76;21069;-75
2022/08/06 13:23:56;;;;;;;2.42;0.50;;;;;;;26.93;40.72;101912.19;1816680;77;21516;-75
2022/08/06 13:26:28;;;;;;;2.65;1.40;;;;;;;27.18;40.77;101912.39;1829607;77;21145;-75
2022/08/06 13:29:25;;;;;;;5.62;1.02;;;;;;;27.25;39.86;101907.66;1840800;77;21137;-75
2022/08/06 13:32:02;;;;;;;2.92;0.78;;;;;;;27.29;39.75;101911.86;1843356;77;21142;-76
2022/08/06 13:34:29;;;;;;;1.45;0.62;;;;;;;27.24;38.87;101902.84;1828902;77;21046;-75
2022/08/06 13:37:02;;;;;;;2.00;0.60;;;;;;;27.42;39.93;101908.16;1846747;77;21080;-75
2022/08/06 13:39:36;;;;;;;4.47;0.50;;;;;;;27.52;41.07;101908.07;1778117;79;21128;-75
2022/08/06 13:42:07;;;;;;;1.37;0.60;;;;;;;27.34;37.50;101909.00;1836350;77;21187;-75
2022/08/06 13:44:37;;;;;;;0.85;0.53;;;;;;;27.48;40.04;101904.36;1818459;76;21124;-75
2022/08/06 13:47:06;;;;;;;2.45;0.68;;;;;;;27.60;40.32;101905.06;1822646;77;21451;-75
2022/08/06 13:49:34;;;;;;;0.85;0.50;;;;;;;27.52;39.54;101904.11;1827425;77;21037;-75
2022/08/06 13:52:03;;;;;;;2.85;0.82;;;;;;;27.70;37.76;101900.20;1833272;77;21053;-75
2022/08/06 13:54:30;;;;;;;1.82;0.60;;;;;;;27.84;38.24;101897.31;1838146;76;21013;-75
2022/08/06 13:56:58;;;;;;;3.72;0.80;;;;;;;27.76;38.07;101896.40;1835072;77;21076;-75
2022/08/06 13:59:28;;;;;;;3.40;0.70;;;;;;;27.85;38.42;101890.63;1850221;77;21482;-75
2022/08/06 14:01:57;;;;;;;4.70;0.90;;;;;;;27.69;38.06;101894.52;1829345;77;21065;-75
2022/08/06 14:04:29;;;;;;;1.15;0.72;;;;;;;27.68;38.19;101884.89;1844557;77;21072;-75
2022/08/06 14:06:56;;;;;;;1.60;0.70;;;;;;;27.77;38.97;101881.77;1840839;76;21541;-75
2022/08/06 14:09:31;;;;;;;1.12;0.40;;;;;;;28.06;39.14;101878.09;1840707;77;20993;-75
2022/08/06 14:11:59;;;;;;;3.87;1.17;;;;;;;28.03;37.20;101880.89;1843869;77;21161;-75
2022/08/06 14:14:27;;;;;;;1.37;0.60;;;;;;;28.13;37.15;101866.73;1847252;77;21091;-75
2022/08/06 14:16:57;;;;;;;2.98;1.25;;;;;;;28.28;38.30;101870.36;1831686;77;21114;-75
2022/08/06 14:19:25;;;;;;;2.08;0.62;;;;;;;28.26;35.72;101875.32;1791408;77;21029;-75
2022/08/06 14:21:52;;;;;;;4.00;0.70;;;;;;;27.88;35.45;101876.41;1847408;77;21218;-75
2022/08/06 14:24:20;;;;;;;1.75;0.60;;;;;;;28.00;36.29;101869.16;1844994;77;20990;-75
2022/08/06 14:26:47;;;;;;;1.45;0.42;;;;;;;28.28;37.88;101870.85;1842498;77;21052;-75
2022/08/06 14:29:15;;;;;;;3.58;0.78;;;;;;;28.31;34.58;101860.95;1833744;77;21026;-75
2022/08/06 14:31:42;;;;;;;3.30;0.53;;;;;;;28.46;35.11;101859.75;1838502;77;21534;-75
2022/08/06 14:34:11;;;;;;;135.32;16.73;;;;;;;28.27;35.14;101854.13;1842751;77;21025;-75
2022/08/06 14:36:39;;;;;;;3.70;0.93;;;;;;;28.44;36.13;101869.53;1848772;77;21071;-75
2022/08/06 14:39:09;;;;;;;2.77;1.00;;;;;;;28.60;36.10;101860.30;1842873;77;21038;-75
2022/08/06 14:47:08;;;;;;;6.58;1.82;;;;;;;29.00;37.04;101843.13;1841588;77;21660;-75
2022/08/06 14:49:39;;;;;;;2.15;0.80;;;;;;;29.06;37.81;101846.30;1844933;77;21017;-76
2022/08/06 14:52:06;;;;;;;4.90;0.53;;;;;;;28.88;39.05;101836.73;1843564;77;21100;-75
2022/08/06 14:54:35;;;;;;;101.58;14.43;;;;;;;29.02;40.59;101845.23;1844690;77;21084;-75
2022/08/06 14:57:04;;;;;;;4.83;1.45;;;;;;;28.94;40.10;101839.07;1850786;77;21013;-75
2022/08/06 14:59:35;;;;;;;1.32;0.65;;;;;;;28.75;39.67;101840.08;1834193;77;21102;-75
2022/08/06 15:02:05;;;;;;;5.62;1.27;;;;;;;28.67;39.57;101838.34;1831074;77;21113;-75
2022/08/06 15:04:33;;;;;;;1.70;0.60;;;;;;;28.62;38.90;101830.66;1843469;77;21046;-75
2022/08/06 15:07:01;;;;;;;3.27;0.60;;;;;;;28.78;40.48;101834.63;1846467;77;21006;-76
2022/08/06 15:09:37;;;;;;;2.08;0.60;;;;;;;29.31;41.14;101827.66;1841159;77;21013;-76
2022/08/06 15:11:59;;;;;;;2.62;0.82;;;;;;;29.69;40.57;101826.78;1833461;76;21113;-75
2022/08/06 15:14:31;;;;;;;5.92;0.90;;;;;;;29.57;38.99;101821.28;1843783;76;21034;-75
2022/08/06 15:17:00;;;;;;;4.15;0.80;;;;;;;29.45;40.29;101824.64;1822439;77;21074;-75
2022/08/06 15:19:28;;;;;;;2.90;0.90;;;;;;;29.52;40.08;101823.34;1840840;77;21111;-75
2022/08/06 15:22:06;;;;;;;3.95;0.70;;;;;;;29.64;38.34;101816.95;1847195;76;21460;-75
2022/08/06 15:24:40;;;;;;;;;;;;;;;;;;;;;
2022/08/06 15:27:06;;;;;;;1.57;0.57;;;;;;;29.98;38.84;101817.05;1841180;77;21087;-75
2022/08/06 15:29:30;;;;;;;2.72;0.75;;;;;;;29.70;37.80;101809.98;1840410;77;21041;-75
2022/08/06 15:32:04;;;;;;;3.05;0.55;;;;;;;29.82;39.42;101807.03;1860808;76;21520;-76
2022/08/06 15:34:49;;;;;;;;;;;;;;;;;;;;;
2022/08/06 15:37:10;;;;;;;0.93;0.60;;;;;;;29.68;38.65;101807.88;1808788;77;21101;-75
2022/08/06 15:39:52;;;;;;;;;;;;;;;;;;;;;
2022/08/06 15:43:09;;;;;;;;;;;;;;;;;;;;;
2022/08/06 15:45:05;;;;;;;;;;;;;;;;;;;;;
2022/08/06 15:47:33;;;;;;;;;;;;;;;;;;;;;
2022/08/06 15:52:46;;;;;;;;;;;;;;;;;;;;;
2022/08/06 16:06:14;;;;;;;1.22;0.47;;;;;;;29.38;42.09;101778.31;1662776;85;21090;-76
2022/08/06 16:08:41;;;;;;;2.08;0.82;;;;;;;29.44;42.16;101777.95;1657055;85;21165;-75
2022/08/06 16:11:18;;;;;;;1.45;0.57;;;;;;;28.69;41.36;101788.39;1638800;83;21086;-76
2022/08/06 16:13:43;;;;;;;1.98;0.80;;;;;;;28.70;42.26;101787.45;1678841;84;21139;-75
2022/08/06 16:16:16;;;;;;;5.70;0.80;;;;;;;28.33;42.89;101781.61;1667975;85;21134;-75
2022/08/06 16:18:55;;;;;;;;;;;;;;;;;;;;;
2022/08/06 16:27:05;;;;;;;;;;;;;;;;;;;;;
2022/08/06 16:29:42;;;;;;;;;;;;;;;;;;;;;
2022/08/06 16:32:27;;;;;;;;;;;;;;;;;;;;;
2022/08/06 16:34:59;;;;;;;;;;;;;;;;;;;;;
2022/08/06 16:37:27;;;;;;;1.92;0.65;;;;;;;27.61;45.50;101799.00;1573651;89;21146;-75
2022/08/06 16:40:14;;;;;;;;;;;;;;;;;;;;;
2022/08/06 16:42:49;;;;;;;;;;;;;;;;;;;;;
2022/08/06 16:51:45;;;;;;;;;;;;;;;;;;;;;
2022/08/06 16:59:47;;;;;;;;;;;;;;;;;;;;;
2022/08/06 17:10:17;;;;;;;2.95;0.85;;;;;;;26.62;52.36;101783.20;1637179;87;21516;-75
2022/08/06 17:12:37;;;;;;;3.12;0.80;;;;;;;26.78;53.17;101781.53;1650443;85;21137;-74
2022/08/06 17:15:21;;;;;;;;;;;;;;;;;;;;;
2022/08/06 17:17:53;;;;;;;;;;;;;;;26.66;54.24;101775.53;1644944;86;21729;-75
2022/08/06 17:20:09;;;;;;;4.28;1.10;;;;;;;26.77;54.93;101781.59;1647404;85;20164;-75
2022/08/06 17:22:38;;;;;;;1.45;0.60;;;;;;;26.56;55.55;101780.39;1687190;82;21123;-75
2022/08/06 17:27:48;;;;;;;1.17;0.85;;;;;;;26.58;56.90;101785.59;1691865;82;21169;-76
2022/08/06 17:30:21;;;;;;;6.08;0.98;;;;;;;26.57;55.98;101788.69;1705539;82;21184;-74
2022/08/06 17:32:57;;;;;;;0.75;0.60;;;;;;;26.67;57.63;101777.23;1713055;81;21165;-75
2022/08/06 17:35:54;;;;;;;2.42;0.80;;;;;;;26.39;59.21;101782.50;1722320;82;21071;-75
2022/08/06 17:38:03;;;;;;;2.62;0.70;;;;;;;26.36;61.87;101779.56;1752317;80;21178;-75
2022/08/06 17:40:30;;;;;;;2.25;0.70;;;;;;;26.50;62.80;101771.00;1757775;79;21224;-75
2022/08/06 17:43:09;;;;;;;2.50;1.10;;;;;;;26.30;63.56;101773.73;1765176;80;21089;-75
2022/08/06 17:45:38;;;;;;;4.17;0.90;;;;;;;26.21;66.26;101767.91;1774541;80;21057;-75
2022/08/06 17:48:13;;;;;;;5.95;1.00;;;;;;;26.11;67.23;101764.00;1757018;80;21105;-75
2022/08/06 17:50:47;;;;;;;2.90;0.78;;;;;;;26.08;67.96;101768.09;1765588;80;21035;-75
2022/08/06 17:53:06;;;;;;;1.67;0.70;;;;;;;26.27;68.49;101768.98;1777654;79;21151;-75
2022/08/06 17:55:36;;;;;;;4.75;1.20;;;;;;;26.23;69.87;101785.82;1757396;80;21073;-76
2022/08/06 17:58:03;;;;;;;2.85;1.07;;;;;;;25.98;69.99;101779.05;1756544;80;21510;-74
2022/08/06 18:00:31;;;;;;;4.95;0.90;;;;;;;26.00;71.77;101778.51;1758443;80;21152;-75
2022/08/06 18:03:03;;;;;;;4.53;0.98;;;;;;;25.94;74.74;101772.22;1755429;80;21116;-74
2022/08/06 18:05:33;;;;;;;3.02;1.07;;;;;;;25.76;79.70;101759.42;1755422;80;21533;-75
2022/08/06 18:08:00;;;;;;;3.70;1.15;;;;;;;25.83;80.67;101762.63;1765694;79;21116;-75
2022/08/06 18:10:35;;;;;;;1.20;0.78;;;;;;;25.71;82.10;101770.15;1765599;80;21135;-75
2022/08/06 18:13:05;;;;;;;4.25;1.02;;;;;;;25.48;84.84;101768.50;1756875;80;21194;-74
2022/08/06 18:15:49;;;;;;;2.62;1.20;;;;;;;25.66;83.95;101765.56;1755349;80;21088;-74
2022/08/06 18:18:09;;;;;;;7.90;1.52;;;;;;;25.27;86.70;101777.68;1753116;80;21140;-75
2022/08/06 18:20:34;;;;;;;1.80;1.02;;;;;;;25.14;87.87;101777.81;1801190;78;21093;-74
2022/08/06 18:23:01;;;;;;;3.22;1.10;;;;;;;24.94;88.96;101771.16;1770526;80;21214;-75
2022/08/06 18:25:39;;;;;;;;;;;;;;;;;;;;;
2022/08/06 18:28:05;;;;;;;3.33;0.98;;;;;;;24.93;89.27;101763.33;1753776;80;21126;-76
2022/08/06 18:30:46;;;;;;;2.45;0.78;;;;;;;25.10;89.89;101775.78;1754387;80;21048;-75
2022/08/06 18:33:10;;;;;;;4.00;1.12;;;;;;;24.93;90.39;101800.99;1751479;80;21121;-75
2022/08/06 18:35:32;;;;;;;4.87;1.32;;;;;;;25.02;89.78;101777.88;1761799;79;21066;-75
2022/08/06 18:38:00;;;;;;;4.20;1.02;;;;;;;24.92;90.92;101779.55;1781452;80;21130;-75
2022/08/06 18:40:31;;;;;;;2.35;0.90;;;;;;;25.03;91.71;101780.89;1759236;80;21088;-75
2022/08/06 18:43:08;;;;;;;;;;;;;;;;;;;;;
2022/08/06 18:45:37;;;;;;;4.45;1.37;;;;;;;24.71;97.93;101768.95;1771119;79;21080;-75
2022/08/06 18:48:10;;;;;;;;;;;;;;;;;;;;;
2022/08/06 18:50:37;;;;;;;6.92;1.55;;;;;;;24.66;100.00;101763.05;1753489;80;21061;-75
2022/08/06 18:53:04;;;;;;;4.37;1.32;;;;;;;24.71;100.00;101768.95;1756286;80;21132;-75
2022/08/06 18:55:35;;;;;;;3.50;1.55;;;;;;;24.66;100.00;101766.11;1757240;80;21114;-75
2022/08/06 18:58:10;;;;;;;3.50;1.25;;;;;;;24.61;100.00;101756.64;1756561;79;21691;-74
2022/08/06 19:00:45;;;;;;;6.08;1.42;;;;;;;24.43;100.00;101759.54;1756075;80;21142;-75
2022/08/06 19:03:12;;;;;;;3.72;1.27;;;;;;;24.28;100.00;101744.38;1764161;79;21073;-75
2022/08/06 19:05:40;;;;;;;2.60;1.22;;;;;;;24.29;100.00;101746.95;1764667;80;21038;-75
2022/08/06 19:08:16;;;;;;;5.00;1.57;;;;;;;24.34;100.00;101748.92;1757768;80;21623;-75
2022/08/06 19:10:45;;;;;;;4.30;1.40;;;;;;;24.15;100.00;101752.72;1756279;80;21537;-75
2022/08/06 19:13:09;;;;;;;3.80;1.40;;;;;;;23.97;100.00;101766.05;1755276;80;21111;-75
2022/08/06 19:15:38;;;;;;;4.90;1.40;;;;;;;23.75;100.00;101756.34;1756939;80;21155;-75
2022/08/06 19:18:05;;;;;;;4.75;1.40;;;;;;;23.75;100.00;101753.72;1756452;80;21073;-75
2022/08/06 19:20:33;;;;;;;2.17;1.20;;;;;;;23.77;100.00;101764.12;1779200;80;21176;-75
2022/08/06 19:23:05;;;;;;;6.20;1.15;;;;;;;23.81;100.00;101763.98;1757223;80;21182;-75
2022/08/06 19:25:33;;;;;;;6.90;1.50;;;;;;;23.78;100.00;101774.57;1758700;80;21175;-75
2022/08/06 19:28:01;;;;;;;4.72;1.90;;;;;;;23.61;100.00;101774.33;1758616;80;21132;-75
2022/08/06 19:30:29;;;;;;;4.53;1.67;;;;;;;23.72;100.00;101770.88;1774971;78;21051;-75
2022/08/06 19:32:56;;;;;;;4.97;1.22;;;;;;;23.89;100.00;101775.52;1775795;78;21092;-75